Time;durP1;ratioP1;P1;durP2;ratioP2;P2;SDS_P1;SDS_P2;PMS_P1;PMS_P2;Temp;Humidity;BMP_temperature;BMP_pressure;BME280_temperature;BME280_humidity;BME280_pressure;Samples;Min_cycle;Max_cycle;Signal;HPM_P1;HPM_P2
2022/01/28 00:00:11;;;;;;;10.40;4.95;;;;;;;;;;5032536;28;20753;-78
2022/01/28 00:02:53;;;;;;;14.80;4.40;;;;;;;;;;5034424;28;20051;-78
2022/01/28 00:05:22;;;;;;;11.68;6.25;;;;;;;;;;5041193;28;20041;-78
2022/01/28 00:07:49;;;;;;;9.73;5.25;;;;;;;;;;5038082;28;20044;-78
2022/01/28 00:10:15;;;;;;;11.52;5.22;;;;;;;;;;5037667;28;20052;-78
2022/01/28 00:13:06;;;;;;;19.42;5.55;;;;;;;;;;5032935;28;20052;-79
2022/01/28 00:39:45;;;;;;;14.88;5.80;;;;;;;;;;5035894;28;20047;-77
2022/01/28 00:42:11;;;;;;;9.98;4.50;;;;;;;;;;5040540;28;20126;-79
2022/01/28 00:44:37;;;;;;;12.70;5.53;;;;;;;;;;5038113;28;20420;-77
2022/01/28 00:47:03;;;;;;;9.68;4.95;;;;;;;;;;5033881;28;20052;-78
2022/01/28 00:49:29;;;;;;;16.00;7.05;;;;;;;;;;5038767;28;20029;-77
2022/01/28 00:51:55;;;;;;;11.85;5.45;;;;;;;;;;5033954;28;20118;-78
2022/01/28 00:54:21;;;;;;;12.82;6.20;;;;;;;;;;5041104;28;20032;-78
2022/01/28 00:56:47;;;;;;;9.48;4.55;;;;;;;;;;5037940;28;20029;-78
2022/01/28 00:59:14;;;;;;;14.52;6.03;;;;;;;;;;5038796;28;20025;-77
2022/01/28 01:01:41;;;;;;;14.13;5.55;;;;;;;;;;5037142;28;20742;-78
2022/01/28 01:04:07;;;;;;;11.15;4.53;;;;;;;;;;5034598;28;20056;-78
2022/01/28 01:06:33;;;;;;;9.27;3.60;;;;;;;;;;5039969;28;21226;-78
2022/01/28 01:09:00;;;;;;;10.18;4.82;;;;;;;;;;5036838;28;20134;-78
2022/01/28 01:11:27;;;;;;;12.73;5.22;;;;;;;;;;5034212;28;20064;-78
2022/01/28 01:13:53;;;;;;;7.35;4.18;;;;;;;;;;5039807;28;20037;-78
2022/01/28 01:16:32;;;;;;;8.82;4.60;;;;;;;;;;5034501;28;20021;-78
2022/01/28 01:21:40;;;;;;;12.48;5.60;;;;;;;;;;5037049;28;20570;-78
2022/01/28 01:24:08;;;;;;;12.50;5.72;;;;;;;;;;5038513;28;20104;-78
2022/01/28 01:26:38;;;;;;;14.13;4.88;;;;;;;;;;5040685;28;20055;-77
2022/01/28 01:29:07;;;;;;;11.60;5.00;;;;;;;;;;5032844;28;20036;-78
2022/01/28 01:31:33;;;;;;;18.20;5.38;;;;;;;;;;5035528;28;20902;-78
2022/01/28 01:34:09;;;;;;;8.45;4.00;;;;;;;;;;5041338;28;20017;-79
2022/01/28 01:36:35;;;;;;;11.00;4.60;;;;;;;;;;5040255;28;20033;-77
2022/01/28 01:39:02;;;;;;;7.68;4.65;;;;;;;;;;5039453;28;20037;-78
2022/01/28 01:41:56;;;;;;;10.90;5.28;;;;;;;;;;5039292;28;20036;-78
2022/01/28 01:44:35;;;;;;;12.80;4.70;;;;;;;;;;5037449;28;20040;-77
2022/01/28 01:52:38;;;;;;;13.52;5.22;;;;;;;;;;5036106;28;20064;-78
2022/01/28 01:55:04;;;;;;;13.48;4.80;;;;;;;;;;5042016;28;20033;-79
2022/01/28 01:57:30;;;;;;;15.75;5.63;;;;;;;;;;5048548;28;20021;-78
2022/01/28 01:59:56;;;;;;;10.35;4.90;;;;;;;;;;5041952;28;20029;-78
2022/01/28 02:02:22;;;;;;;14.43;5.32;;;;;;;;;;5038748;28;20131;-77
2022/01/28 02:04:48;;;;;;;9.32;4.53;;;;;;;;;;5038761;28;20063;-78
2022/01/28 02:07:16;;;;;;;16.45;6.32;;;;;;;;;;5039781;28;20108;-78
2022/01/28 02:09:42;;;;;;;12.82;6.05;;;;;;;;;;5038343;28;20035;-78
2022/01/28 02:12:08;;;;;;;14.55;6.47;;;;;;;;;;5036280;28;20605;-79
2022/01/28 02:14:34;;;;;;;11.60;4.95;;;;;;;;;;5032614;28;20025;-78
2022/01/28 02:17:01;;;;;;;11.68;5.45;;;;;;;;;;5039372;28;20197;-78
2022/01/28 02:19:28;;;;;;;13.23;5.93;;;;;;;;;;5039431;28;20647;-78
2022/01/28 02:21:54;;;;;;;9.85;5.07;;;;;;;;;;5039253;28;20033;-77
2022/01/28 02:27:15;;;;;;;10.23;5.95;;;;;;;;;;5040067;28;20194;-78
2022/01/28 02:29:43;;;;;;;10.55;5.13;;;;;;;;;;5035574;28;20120;-79
2022/01/28 02:32:09;;;;;;;9.82;5.32;;;;;;;;;;5037726;28;20033;-78
2022/01/28 02:34:38;;;;;;;16.58;6.03;;;;;;;;;;5034233;28;20021;-78
2022/01/28 02:37:04;;;;;;;9.50;4.65;;;;;;;;;;5034287;28;20033;-78
2022/01/28 02:39:30;;;;;;;10.73;5.75;;;;;;;;;;5033634;28;20126;-78
2022/01/28 02:42:44;;;;;;;12.25;5.32;;;;;;;;;;5034489;28;20020;-78
2022/01/28 02:44:53;;;;;;;12.32;4.75;;;;;;;;;;5032712;28;20053;-78
2022/01/28 02:47:30;;;;;;;9.60;4.57;;;;;;;;;;5036264;28;20041;-78
2022/01/28 02:49:56;;;;;;;11.25;5.50;;;;;;;;;;5034141;28;20151;-78
2022/01/28 02:52:24;;;;;;;12.18;4.82;;;;;;;;;;5036724;28;20028;-78
2022/01/28 02:54:50;;;;;;;8.50;4.75;;;;;;;;;;5036007;28;20069;-78
2022/01/28 02:57:24;;;;;;;9.02;4.70;;;;;;;;;;5039979;28;20063;-78
2022/01/28 02:59:49;;;;;;;;;;;;;;;;;;5036685;28;20037;-78
2022/01/28 03:02:15;;;;;;;10.32;4.32;;;;;;;;;;5028388;28;19916;-77
2022/01/28 03:07:33;;;;;;;9.63;4.55;;;;;;;;;;5029629;28;20075;-79
2022/01/28 03:12:48;;;;;;;8.65;3.75;;;;;;;;;;5036911;28;20060;-78
2022/01/28 03:15:20;;;;;;;8.95;3.63;;;;;;;;;;5034467;28;20093;-78
2022/01/28 03:17:54;;;;;;;10.70;5.50;;;;;;;;;;5030571;28;20505;-77
2022/01/28 03:22:47;;;;;;;8.77;3.75;;;;;;;;;;5037744;28;20056;-78
2022/01/28 03:25:14;;;;;;;9.63;4.20;;;;;;;;;;5038145;28;20036;-77
2022/01/28 03:30:14;;;;;;;11.32;3.83;;;;;;;;;;5038588;28;20513;-77
2022/01/28 03:32:40;;;;;;;8.57;3.78;;;;;;;;;;5041095;28;20041;-77
2022/01/28 03:35:09;;;;;;;8.70;3.90;;;;;;;;;;5036087;28;20025;-77
2022/01/28 03:37:35;;;;;;;6.32;4.13;;;;;;;;;;5037919;28;20029;-77
2022/01/28 03:40:01;;;;;;;8.65;3.63;;;;;;;;;;5041645;28;21176;-78
2022/01/28 03:42:28;;;;;;;9.98;4.60;;;;;;;;;;5039235;28;20104;-77
2022/01/28 03:44:54;;;;;;;7.45;4.00;;;;;;;;;;5034058;28;20024;-78
2022/01/28 03:47:19;;;;;;;8.05;4.15;;;;;;;;;;5039243;28;20067;-78
2022/01/28 03:49:45;;;;;;;7.93;4.35;;;;;;;;;;5038952;28;20029;-78
2022/01/28 03:52:11;;;;;;;6.75;3.95;;;;;;;;;;5040077;28;20033;-78
2022/01/28 03:54:37;;;;;;;12.13;5.25;;;;;;;;;;5040116;28;20083;-78
2022/01/28 03:57:06;;;;;;;9.50;4.63;;;;;;;;;;5038358;28;20506;-78
2022/01/28 03:59:32;;;;;;;8.23;4.43;;;;;;;;;;5038765;28;20056;-78
2022/01/28 04:01:58;;;;;;;13.02;4.97;;;;;;;;;;5040604;28;20056;-79
2022/01/28 04:12:32;;;;;;;9.73;4.22;;;;;;;;;;5041052;28;20195;-78
2022/01/28 04:17:42;;;;;;;11.75;5.60;;;;;;;;;;5038506;28;20052;-78
2022/01/28 04:20:08;;;;;;;12.68;5.28;;;;;;;;;;5040418;28;20100;-77
2022/01/28 04:22:34;;;;;;;14.25;5.55;;;;;;;;;;5038816;28;20029;-78
2022/01/28 04:25:00;;;;;;;9.77;5.05;;;;;;;;;;5039204;28;20024;-77
2022/01/28 04:27:26;;;;;;;9.77;5.55;;;;;;;;;;5040726;28;20045;-78
2022/01/28 04:29:52;;;;;;;9.88;5.47;;;;;;;;;;5038603;28;20396;-78
2022/01/28 04:32:19;;;;;;;14.27;4.50;;;;;;;;;;5037810;28;20034;-78
2022/01/28 04:34:46;;;;;;;16.88;5.03;;;;;;;;;;5044195;28;20029;-78
2022/01/28 04:37:36;;;;;;;6.55;3.90;;;;;;;;;;5042313;28;20051;-78
2022/01/28 04:50:53;;;;;;;7.07;3.63;;;;;;;;;;5043593;28;20033;-78
2022/01/28 04:53:33;;;;;;;10.50;4.47;;;;;;;;;;5043877;28;20043;-78
2022/01/28 05:04:00;;;;;;;5.25;2.65;;;;;;;;;;5046907;28;20040;-77
2022/01/28 05:11:59;;;;;;;6.45;3.65;;;;;;;;;;5045239;28;20098;-78
2022/01/28 05:27:44;;;;;;;11.52;2.92;;;;;;;;;;5019688;28;20278;-77
2022/01/28 05:30:10;;;;;;;4.75;2.80;;;;;;;;;;5037185;28;20035;-78
2022/01/28 05:32:36;;;;;;;9.07;3.90;;;;;;;;;;5039166;28;20111;-77
2022/01/28 05:35:02;;;;;;;8.98;3.28;;;;;;;;;;5034348;28;20021;-77
2022/01/28 05:37:28;;;;;;;8.85;4.00;;;;;;;;;;5030196;28;20040;-78
2022/01/28 05:39:54;;;;;;;10.02;4.18;;;;;;;;;;5031997;28;20033;-77
2022/01/28 05:42:20;;;;;;;6.05;2.58;;;;;;;;;;5033652;28;20118;-76
2022/01/28 05:44:46;;;;;;;12.68;5.45;;;;;;;;;;5023840;28;20037;-76
2022/01/28 05:47:15;;;;;;;12.55;5.38;;;;;;;;;;5029060;28;20044;-76
2022/01/28 05:49:42;;;;;;;11.45;4.70;;;;;;;;;;5034665;28;20037;-79
2022/01/28 05:52:09;;;;;;;10.90;4.78;;;;;;;;;;5038275;28;20025;-76
2022/01/28 05:54:35;;;;;;;9.23;4.93;;;;;;;;;;5026953;28;20420;-76
2022/01/28 05:57:01;;;;;;;10.85;6.43;;;;;;;;;;5034389;28;20059;-77
2022/01/28 05:59:27;;;;;;;11.55;4.72;;;;;;;;;;5042792;28;20045;-77
2022/01/28 06:01:53;;;;;;;8.43;4.57;;;;;;;;;;5038673;28;20048;-77
2022/01/28 06:04:21;;;;;;;11.50;5.55;;;;;;;;;;5034995;28;20025;-77
2022/01/28 06:06:47;;;;;;;16.02;4.70;;;;;;;;;;5043589;28;20040;-78
2022/01/28 06:09:13;;;;;;;9.15;4.57;;;;;;;;;;5037711;28;20018;-78
2022/01/28 06:11:39;;;;;;;9.38;4.15;;;;;;;;;;5036944;28;20037;-78
2022/01/28 06:14:09;;;;;;;8.50;4.53;;;;;;;;;;5041587;28;20056;-79
2022/01/28 06:16:35;;;;;;;10.55;5.13;;;;;;;;;;5039712;28;20502;-77
2022/01/28 06:19:01;;;;;;;10.88;4.88;;;;;;;;;;5038817;28;20056;-79
2022/01/28 06:21:27;;;;;;;17.25;5.70;;;;;;;;;;5040599;28;20048;-77
2022/01/28 06:23:53;;;;;;;14.18;4.70;;;;;;;;;;5043520;28;20076;-78
2022/01/28 06:26:19;;;;;;;9.13;4.55;;;;;;;;;;5039815;28;20032;-78
2022/01/28 06:28:45;;;;;;;10.48;4.93;;;;;;;;;;5042582;28;20238;-78
2022/01/28 06:31:11;;;;;;;8.60;4.57;;;;;;;;;;5043777;28;20029;-77
2022/01/28 06:33:37;;;;;;;11.73;4.72;;;;;;;;;;5039594;28;20025;-78
2022/01/28 06:36:03;;;;;;;10.10;4.15;;;;;;;;;;5038996;28;20496;-78
2022/01/28 06:38:30;;;;;;;9.88;5.65;;;;;;;;;;5040907;28;20863;-78
2022/01/28 06:40:56;;;;;;;8.13;4.80;;;;;;;;;;5040072;28;20024;-78
2022/01/28 06:43:22;;;;;;;11.45;5.25;;;;;;;;;;5041169;28;20627;-78
2022/01/28 06:45:48;;;;;;;11.32;4.30;;;;;;;;;;5038281;28;20053;-78
2022/01/28 06:48:16;;;;;;;11.10;5.00;;;;;;;;;;5040227;28;21024;-78
2022/01/28 06:50:44;;;;;;;6.53;4.03;;;;;;;;;;5038173;28;20202;-78
2022/01/28 06:53:14;;;;;;;15.93;4.45;;;;;;;;;;5040416;28;20039;-78
2022/01/28 06:55:40;;;;;;;11.80;5.25;;;;;;;;;;5037656;28;20039;-78
2022/01/28 06:58:07;;;;;;;9.65;4.90;;;;;;;;;;5038868;28;20078;-77
2022/01/28 07:00:37;;;;;;;10.88;5.90;;;;;;;;;;5034739;28;20037;-78
2022/01/28 07:03:04;;;;;;;17.42;5.90;;;;;;;;;;5039535;28;20037;-79
2022/01/28 07:05:30;;;;;;;17.70;9.30;;;;;;;;;;5040887;28;20033;-77
2022/01/28 07:07:56;;;;;;;11.15;4.75;;;;;;;;;;5038185;28;20056;-78
2022/01/28 07:10:22;;;;;;;10.30;5.78;;;;;;;;;;5038148;28;20040;-78
2022/01/28 07:12:48;;;;;;;19.13;6.25;;;;;;;;;;5037506;28;20285;-78
2022/01/28 07:15:14;;;;;;;14.02;5.63;;;;;;;;;;5039663;28;20033;-78
2022/01/28 07:17:40;;;;;;;10.68;5.32;;;;;;;;;;5040212;28;20032;-78
2022/01/28 07:20:06;;;;;;;11.48;4.60;;;;;;;;;;5035578;28;20428;-79
2022/01/28 07:22:32;;;;;;;15.18;4.68;;;;;;;;;;5037574;28;20033;-78
2022/01/28 07:24:58;;;;;;;8.88;4.35;;;;;;;;;;5038788;28;20118;-78
2022/01/28 07:27:24;;;;;;;10.85;4.43;;;;;;;;;;5043313;28;20097;-77
2022/01/28 07:29:51;;;;;;;12.15;5.75;;;;;;;;;;5038301;28;20025;-77
2022/01/28 07:32:17;;;;;;;17.27;6.50;;;;;;;;;;5037178;28;20252;-78
2022/01/28 07:34:43;;;;;;;16.70;6.68;;;;;;;;;;5039327;28;21012;-78
2022/01/28 07:37:09;;;;;;;8.23;3.65;;;;;;;;;;5040168;28;20032;-78
2022/01/28 07:39:35;;;;;;;13.20;6.30;;;;;;;;;;5038219;28;20105;-78
2022/01/28 07:42:01;;;;;;;21.13;6.18;;;;;;;;;;5038396;28;20123;-78
2022/01/28 07:44:27;;;;;;;9.02;4.78;;;;;;;;;;5039718;28;20105;-77
2022/01/28 07:46:53;;;;;;;7.10;3.88;;;;;;;;;;5038549;28;20130;-77
2022/01/28 07:49:19;;;;;;;11.23;4.10;;;;;;;;;;5039480;28;20024;-77
2022/01/28 07:51:45;;;;;;;9.30;4.10;;;;;;;;;;5040321;28;20120;-78
2022/01/28 07:54:11;;;;;;;10.43;4.38;;;;;;;;;;5039391;28;20025;-78
2022/01/28 07:56:37;;;;;;;16.50;5.45;;;;;;;;;;5041429;28;20814;-77
2022/01/28 07:59:03;;;;;;;11.63;5.05;;;;;;;;;;5038223;28;20059;-79
2022/01/28 08:01:29;;;;;;;8.63;4.05;;;;;;;;;;5042050;28;20089;-78
2022/01/28 08:03:55;;;;;;;9.02;4.90;;;;;;;;;;5044105;28;20625;-78
2022/01/28 08:06:21;;;;;;;11.13;5.47;;;;;;;;;;5042742;28;22363;-78
2022/01/28 08:08:47;;;;;;;13.07;4.72;;;;;;;;;;5044783;28;20033;-78
2022/01/28 08:11:13;;;;;;;9.20;4.72;;;;;;;;;;5046499;28;20021;-78
2022/01/28 08:13:39;;;;;;;10.50;4.57;;;;;;;;;;5051735;28;20127;-78
2022/01/28 08:16:05;;;;;;;11.27;5.28;;;;;;;;;;5051954;28;20029;-78
2022/01/28 08:18:31;;;;;;;11.27;4.80;;;;;;;;;;5054949;28;20029;-78
2022/01/28 08:20:58;;;;;;;12.57;5.30;;;;;;;;;;5054034;28;20037;-79
2022/01/28 08:23:24;;;;;;;9.63;3.83;;;;;;;;;;5052324;28;20061;-79
2022/01/28 08:25:54;;;;;;;8.30;5.18;;;;;;;;;;5049572;28;20043;-79
2022/01/28 08:28:20;;;;;;;13.45;6.38;;;;;;;;;;5052897;28;20051;-78
2022/01/28 08:30:46;;;;;;;9.10;3.70;;;;;;;;;;5043119;28;20028;-77
2022/01/28 08:33:12;;;;;;;15.98;4.97;;;;;;;;;;5048822;28;20037;-77
2022/01/28 08:35:39;;;;;;;9.32;4.20;;;;;;;;;;5048007;28;20025;-78
2022/01/28 08:38:13;;;;;;;11.82;5.63;;;;;;;;;;5050197;28;20116;-78
2022/01/28 08:40:40;;;;;;;11.25;5.43;;;;;;;;;;5044440;28;20083;-78
2022/01/28 08:43:06;;;;;;;13.85;4.72;;;;;;;;;;5044433;28;20033;-78
2022/01/28 08:45:32;;;;;;;10.23;5.15;;;;;;;;;;5044822;28;20590;-77
2022/01/28 08:47:58;;;;;;;11.85;5.22;;;;;;;;;;5040202;28;20108;-77
2022/01/28 08:50:24;;;;;;;13.65;5.43;;;;;;;;;;5045008;28;20036;-77
2022/01/28 08:52:50;;;;;;;15.95;4.70;;;;;;;;;;5047503;28;20032;-77
2022/01/28 08:55:16;;;;;;;15.82;5.35;;;;;;;;;;5047474;28;20029;-78
2022/01/28 08:57:43;;;;;;;14.90;5.57;;;;;;;;;;5047867;28;20249;-78
2022/01/28 09:00:13;;;;;;;13.40;5.30;;;;;;;;;;5045557;28;20066;-77
2022/01/28 09:02:40;;;;;;;10.15;5.03;;;;;;;;;;5046153;28;20052;-78
2022/01/28 09:05:06;;;;;;;9.70;5.22;;;;;;;;;;5046094;28;20143;-77
2022/01/28 09:07:32;;;;;;;11.18;5.63;;;;;;;;;;5043923;28;20060;-78
2022/01/28 09:10:04;;;;;;;13.73;5.53;;;;;;;;;;5043119;28;20038;-77
2022/01/28 09:12:40;;;;;;;8.55;4.30;;;;;;;;;;5043978;28;20079;-78
2022/01/28 09:15:07;;;;;;;11.27;4.50;;;;;;;;;;5046593;28;20031;-78
2022/01/28 09:17:33;;;;;;;8.65;3.60;;;;;;;;;;5046465;28;20043;-78
2022/01/28 09:19:59;;;;;;;15.18;4.65;;;;;;;;;;5045827;28;20374;-78
2022/01/28 09:22:25;;;;;;;8.32;3.38;;;;;;;;;;5046053;28;20033;-78
2022/01/28 09:24:52;;;;;;;8.48;4.45;;;;;;;;;;5046152;28;20021;-78
2022/01/28 09:27:18;;;;;;;9.10;3.05;;;;;;;;;;5043161;28;20056;-78
2022/01/28 09:29:44;;;;;;;14.68;4.97;;;;;;;;;;5045944;28;20400;-77
2022/01/28 09:32:10;;;;;;;9.07;4.38;;;;;;;;;;5040603;28;20151;-78
2022/01/28 09:34:36;;;;;;;6.57;3.50;;;;;;;;;;5046356;28;20065;-78
2022/01/28 09:37:02;;;;;;;7.53;3.63;;;;;;;;;;5044018;28;20029;-77
2022/01/28 09:39:31;;;;;;;8.77;4.43;;;;;;;;;;5046204;28;20029;-78
2022/01/28 09:42:03;;;;;;;12.30;4.40;;;;;;;;;;5042559;28;20512;-77
2022/01/28 09:44:31;;;;;;;11.07;4.97;;;;;;;;;;5044997;28;20029;-78
2022/01/28 09:46:58;;;;;;;9.40;4.30;;;;;;;;;;5047286;28;20056;-78
2022/01/28 09:49:25;;;;;;;13.30;4.82;;;;;;;;;;5044948;28;20032;-78
2022/01/28 09:51:51;;;;;;;10.93;3.13;;;;;;;;;;5046376;28;20029;-78
2022/01/28 09:54:16;;;;;;;11.45;3.47;;;;;;;;;;5039265;28;20088;-78
2022/01/28 09:56:42;;;;;;;4.85;2.72;;;;;;;;;;5045477;28;20045;-78
2022/01/28 09:59:08;;;;;;;15.52;5.10;;;;;;;;;;5046123;28;20040;-78
2022/01/28 10:01:34;;;;;;;8.70;3.55;;;;;;;;;;5042612;28;20036;-78
2022/01/28 10:04:05;;;;;;;8.75;4.35;;;;;;;;;;5045416;28;20032;-78
2022/01/28 10:06:34;;;;;;;7.90;3.95;;;;;;;;;;5047666;28;20047;-78
2022/01/28 10:09:07;;;;;;;6.28;3.13;;;;;;;;;;5045468;28;20025;-78
2022/01/28 10:11:33;;;;;;;4.38;2.25;;;;;;;;;;5044616;28;20041;-79
2022/01/28 10:14:07;;;;;;;5.03;3.03;;;;;;;;;;5052792;28;20029;-79
2022/01/28 10:16:33;;;;;;;7.00;3.47;;;;;;;;;;5045198;28;20033;-79
2022/01/28 10:18:58;;;;;;;6.55;2.97;;;;;;;;;;5043966;28;21218;-78
2022/01/28 10:21:29;;;;;;;7.50;2.92;;;;;;;;;;5046997;28;20389;-79
2022/01/28 10:24:25;;;;;;;9.23;3.22;;;;;;;;;;5044477;28;20033;-79
2022/01/28 10:26:53;;;;;;;7.88;3.88;;;;;;;;;;5037312;28;20051;-78
2022/01/28 10:29:20;;;;;;;6.20;2.58;;;;;;;;;;5047570;28;21290;-79
2022/01/28 10:31:48;;;;;;;10.20;2.83;;;;;;;;;;5043275;28;20032;-78
2022/01/28 10:34:19;;;;;;;5.40;2.70;;;;;;;;;;5045797;28;20040;-78
2022/01/28 10:36:46;;;;;;;10.50;2.97;;;;;;;;;;5049224;28;20097;-79
2022/01/28 10:39:13;;;;;;;10.85;3.10;;;;;;;;;;5044216;28;20554;-78
2022/01/28 10:41:48;;;;;;;7.82;2.88;;;;;;;;;;5044546;28;20037;-78
2022/01/28 10:44:15;;;;;;;6.38;2.58;;;;;;;;;;5045982;28;20041;-79
2022/01/28 10:46:41;;;;;;;5.55;3.22;;;;;;;;;;5046257;28;20037;-78
2022/01/28 10:49:08;;;;;;;3.80;2.13;;;;;;;;;;5045552;28;20469;-79
2022/01/28 10:51:38;;;;;;;5.68;2.28;;;;;;;;;;5044305;28;20057;-79
2022/01/28 10:54:08;;;;;;;7.13;2.30;;;;;;;;;;5044076;28;20033;-79
2022/01/28 10:56:56;;;;;;;5.50;2.65;;;;;;;;;;5040710;28;20028;-78
2022/01/28 10:59:35;;;;;;;7.10;2.65;;;;;;;;;;5043109;28;20805;-79
2022/01/28 11:02:01;;;;;;;9.02;2.95;;;;;;;;;;5041851;28;20025;-79
2022/01/28 11:04:27;;;;;;;8.80;2.35;;;;;;;;;;5046885;28;20032;-78
2022/01/28 11:06:55;;;;;;;8.60;2.55;;;;;;;;;;5046813;28;20047;-78
2022/01/28 11:09:22;;;;;;;3.58;1.83;;;;;;;;;;5039398;28;20092;-79
2022/01/28 11:11:49;;;;;;;4.75;2.47;;;;;;;;;;5044406;28;20030;-78
2022/01/28 11:14:15;;;;;;;5.85;2.85;;;;;;;;;;5041806;28;20109;-78
2022/01/28 11:16:41;;;;;;;7.72;2.50;;;;;;;;;;5040490;28;20029;-79
2022/01/28 11:19:11;;;;;;;7.63;2.92;;;;;;;;;;5037305;28;20040;-78
2022/01/28 11:21:43;;;;;;;10.10;2.67;;;;;;;;;;5041096;28;20033;-78
2022/01/28 11:24:13;;;;;;;8.10;2.78;;;;;;;;;;5036463;28;20040;-78
2022/01/28 11:26:50;;;;;;;4.03;2.00;;;;;;;;;;5041592;28;20456;-78
2022/01/28 11:29:20;;;;;;;7.47;3.00;;;;;;;;;;5039659;28;20781;-78
2022/01/28 11:31:47;;;;;;;2.78;1.90;;;;;;;;;;5042862;28;20025;-78
2022/01/28 11:34:17;;;;;;;8.57;2.58;;;;;;;;;;5045492;28;20337;-78
2022/01/28 11:36:43;;;;;;;17.58;5.65;;;;;;;;;;5040877;28;20090;-77
2022/01/28 11:39:30;;;;;;;13.65;4.35;;;;;;;;;;5033803;28;20120;-79
2022/01/28 11:42:10;;;;;;;4.85;1.92;;;;;;;;;;5042249;28;20110;-79
2022/01/28 11:44:51;;;;;;;4.88;2.47;;;;;;;;;;5047287;28;20413;-78
2022/01/28 11:47:23;;;;;;;4.85;2.15;;;;;;;;;;5042687;28;20045;-79
2022/01/28 11:49:57;;;;;;;4.95;2.03;;;;;;;;;;5043779;28;20029;-78
2022/01/28 11:52:25;;;;;;;8.52;2.45;;;;;;;;;;5041961;28;20101;-78
2022/01/28 11:54:51;;;;;;;8.02;2.30;;;;;;;;;;5044228;28;20029;-77
2022/01/28 11:57:17;;;;;;;5.03;2.50;;;;;;;;;;5042178;28;20040;-78
2022/01/28 11:59:44;;;;;;;3.35;1.58;;;;;;;;;;5040033;28;20037;-78
2022/01/28 12:02:11;;;;;;;8.07;2.30;;;;;;;;;;5042987;28;20071;-79
2022/01/28 12:04:39;;;;;;;4.55;1.92;;;;;;;;;;5036925;28;20123;-80
2022/01/28 12:07:07;;;;;;;4.60;2.95;;;;;;;;;;5038958;28;20155;-79
2022/01/28 12:09:34;;;;;;;5.20;2.40;;;;;;;;;;5042776;28;20541;-79
2022/01/28 12:12:00;;;;;;;5.43;1.30;;;;;;;;;;5043096;28;20068;-79
2022/01/28 12:14:44;;;;;;;5.88;2.05;;;;;;;;;;5040940;28;20039;-79
2022/01/28 12:17:29;;;;;;;11.27;2.15;;;;;;;;;;5039937;28;20408;-79
2022/01/28 12:20:24;;;;;;;5.20;2.97;;;;;;;;;;5043379;28;20029;-79
2022/01/28 12:23:02;;;;;;;5.18;1.73;;;;;;;;;;5040313;28;20033;-79
2022/01/28 12:25:44;;;;;;;8.15;1.63;;;;;;;;;;5043951;28;20036;-79
2022/01/28 12:28:22;;;;;;;2.88;1.52;;;;;;;;;;5042504;28;20056;-80
2022/01/28 12:30:51;;;;;;;3.38;1.10;;;;;;;;;;5040323;28;20026;-79
2022/01/28 12:33:21;;;;;;;4.32;1.88;;;;;;;;;;5043310;28;20039;-79
2022/01/28 12:35:50;;;;;;;3.70;1.45;;;;;;;;;;5042588;28;20100;-79
2022/01/28 12:38:20;;;;;;;10.23;2.33;;;;;;;;;;5041448;28;20124;-80
2022/01/28 12:40:49;;;;;;;5.30;0.98;;;;;;;;;;5042346;28;20053;-80
2022/01/28 12:43:19;;;;;;;2.75;1.52;;;;;;;;;;5042052;28;20061;-79
2022/01/28 12:45:58;;;;;;;8.32;2.05;;;;;;;;;;5040797;28;20090;-80
2022/01/28 12:48:24;;;;;;;6.43;2.25;;;;;;;;;;5039130;28;20040;-80
2022/01/28 12:50:50;;;;;;;9.18;1.65;;;;;;;;;;5036767;28;20029;-79
2022/01/28 12:53:26;;;;;;;3.78;1.85;;;;;;;;;;5041578;28;20036;-79
2022/01/28 12:55:52;;;;;;;9.15;2.72;;;;;;;;;;5043132;28;20114;-80
2022/01/28 12:58:18;;;;;;;16.52;2.58;;;;;;;;;;5041142;28;20443;-78
2022/01/28 13:00:44;;;;;;;5.75;1.83;;;;;;;;;;5039749;28;22120;-78
2022/01/28 13:03:24;;;;;;;6.40;2.17;;;;;;;;;;5039911;28;20114;-78
2022/01/28 13:05:56;;;;;;;3.67;1.73;;;;;;;;;;5034231;28;20029;-79
2022/01/28 13:08:26;;;;;;;8.90;1.60;;;;;;;;;;5040014;28;20133;-79
2022/01/28 13:10:51;;;;;;;5.53;2.67;;;;;;;;;;5037423;28;20029;-79
2022/01/28 13:13:19;;;;;;;4.95;2.65;;;;;;;;;;5038724;28;20039;-79
2022/01/28 13:15:53;;;;;;;4.70;2.25;;;;;;;;;;5041794;28;20507;-78
2022/01/28 13:18:19;;;;;;;5.63;1.98;;;;;;;;;;5042603;28;20110;-79
2022/01/28 13:20:45;;;;;;;4.15;2.13;;;;;;;;;;5038425;28;20033;-78
2022/01/28 13:23:12;;;;;;;5.63;1.90;;;;;;;;;;5046067;28;20057;-78
2022/01/28 13:25:39;;;;;;;8.95;1.75;;;;;;;;;;5043461;28;20048;-79
2022/01/28 13:28:11;;;;;;;7.35;1.40;;;;;;;;;;5043713;28;20048;-79
2022/01/28 13:30:39;;;;;;;5.22;2.03;;;7.00;99.90;;;;;;5040328;28;20025;-80
2022/01/28 13:33:10;;;;;;;5.53;1.23;;;;;;;;;;5039277;28;21534;-79
2022/01/28 13:35:37;;;;;;;4.93;1.15;;;;;;;;;;5035978;28;20512;-79
2022/01/28 13:38:13;;;;;;;4.50;1.55;;;;;;;;;;5040111;28;20041;-78
2022/01/28 13:40:39;;;;;;;4.68;1.92;;;;;;;;;;5040249;28;20029;-79
2022/01/28 13:43:09;;;;;;;6.40;1.88;;;;;;;;;;5045178;28;21149;-78
2022/01/28 13:45:57;;;;;;;6.07;1.95;;;;;;;;;;5038419;28;20090;-78
2022/01/28 13:48:32;;;;;;;5.32;1.40;;;;;;;;;;5037406;28;20396;-78
2022/01/28 13:51:06;;;;;;;6.78;1.30;;;;;;;;;;5039235;28;20127;-78
2022/01/28 13:56:03;;;;;;;3.17;1.35;;;;;;;;;;5034179;28;19923;-77
2022/01/28 13:58:30;;;;;;;4.18;2.05;;;;;;;;;;5038492;28;20028;-77
2022/01/28 14:00:56;;;;;;;2.17;1.33;;;;;;;;;;5033743;28;20063;-77
2022/01/28 14:03:24;;;;;;;4.47;2.40;;;6.30;99.90;;;;;;5029083;28;20024;-77
2022/01/28 14:05:50;;;;;;;9.80;2.90;;;;;;;;;;5034035;28;20451;-77
2022/01/28 14:08:16;;;;;;;3.40;1.80;;;;;;;;;;5029856;28;20128;-77
2022/01/28 14:10:42;;;;;;;4.85;2.03;;;;;;;;;;5034186;28;20025;-78
2022/01/28 14:13:22;;;;;;;6.15;2.40;;;;;;;;;;5040579;28;20859;-76
2022/01/28 14:16:12;;;;;;;3.45;1.05;;;;;;;;;;5042029;28;20135;-76
2022/01/28 14:18:38;;;;;;;8.02;2.03;;;;;;;;;;5035411;28;20036;-76
2022/01/28 14:21:04;;;;;;;2.95;1.00;;;;;;;;;;5037369;28;20028;-77
2022/01/28 14:23:30;;;;;;;5.07;1.15;;;;;;;;;;5033630;28;20026;-76
2022/01/28 14:25:56;;;;;;;3.22;1.13;;;;;;;;;;5029770;28;20040;-76
2022/01/28 14:28:38;;;;;;;3.00;1.10;;;;;;;;;;5017770;28;21696;-76
2022/01/28 14:31:08;;;;;;;3.95;1.77;;;;;;;;;;5017060;28;20040;-76
2022/01/28 14:33:35;;;;;;;2.03;1.25;;;;;;;;;;5032485;28;20591;-76
2022/01/28 14:36:01;;;;;;;2.10;1.15;;;;;;;;;;5030046;28;20075;-77
2022/01/28 14:38:27;;;;;;;3.80;1.23;;;;;;;;;;5031639;28;20700;-77
2022/01/28 14:40:53;;;;;;;2.40;1.00;;;;;;;;;;5030857;28;20108;-77
2022/01/28 14:43:19;;;;;;;4.22;0.77;;;;;;;;;;5028804;28;20040;-77
2022/01/28 14:45:45;;;;;;;7.82;1.33;;;;;;;;;;5032485;28;20082;-77
2022/01/28 14:48:11;;;;;;;2.10;1.08;;;;;;;;;;5034108;28;20080;-76
2022/01/28 14:50:37;;;;;;;4.65;0.80;;;;;;;;;;5029998;28;20029;-77
2022/01/28 14:53:03;;;;;;;2.55;1.02;;;;;;;;;;5032346;28;20040;-76
2022/01/28 14:55:30;;;;;;;7.78;0.93;;;;;;;;;;5030631;28;20029;-77
2022/01/28 14:57:56;;;;;;;2.70;1.20;;;;;;;;;;5031903;28;22003;-76
2022/01/28 15:00:22;;;;;;;4.20;0.70;;;;;;;;;;5031635;28;20029;-77
2022/01/28 15:02:48;;;;;;;3.42;1.60;;;;;;;;;;5025356;28;20106;-77
2022/01/28 15:05:14;;;;;;;2.10;0.80;;;;;;;;;;5031775;28;20025;-77
2022/01/28 15:07:40;;;;;;;9.80;1.30;;;;;;;;;;5033449;28;20076;-78
2022/01/28 15:10:08;;;;;;;2.40;0.90;;;;;;;;;;5041240;28;20025;-77
2022/01/28 15:12:34;;;;;;;6.90;1.83;;;;;;;;;;5035465;28;20641;-76
2022/01/28 15:15:00;;;;;;;3.13;1.30;;;;;;;;;;5034385;28;20040;-77
2022/01/28 15:17:27;;;;;;;1.15;0.80;;;;;;;;;;5022693;28;21581;-75
2022/01/28 15:19:53;;;;;;;3.80;0.80;;;;;;;;;;5024281;28;20068;-75
2022/01/28 15:22:19;;;;;;;3.55;2.33;;;;;;;;;;5025348;28;20289;-77
2022/01/28 15:24:45;;;;;;;5.07;1.00;;;;;;;;;;5030534;28;20056;-76
2022/01/28 15:27:11;;;;;;;2.85;1.30;;;;;;;;;;5026890;28;20041;-76
2022/01/28 15:37:38;;;;;;;3.33;0.88;;;;;;;;;;5027442;28;20040;-77
2022/01/28 15:40:04;;;;;;;3.30;0.95;;;;;;;;;;5030398;28;20041;-77
2022/01/28 15:42:30;;;;;;;2.15;1.10;;;;;;;;;;5032981;28;20051;-78
2022/01/28 15:44:57;;;;;;;1.40;0.70;;;;;;;;;;5036906;28;20028;-77
2022/01/28 15:47:23;;;;;;;3.05;0.65;;;;;;;;;;5037893;28;20041;-77
2022/01/28 15:49:49;;;;;;;6.32;1.23;;;;;;;;;;5035184;28;20062;-77
2022/01/28 15:52:15;;;;;;;2.08;1.10;;;;;;;;;;5037016;28;20159;-78
2022/01/28 15:54:41;;;;;;;16.75;6.95;;;;;;;;;;5041686;28;20044;-77
2022/01/28 15:57:08;;;;;;;14.23;6.97;;;;;;;;;;5036378;28;20203;-77
2022/01/28 15:59:34;;;;;;;4.75;2.35;;;;;;;;;;5039638;28;20111;-77
2022/01/28 16:02:00;;;;;;;9.55;2.92;;;;;;;;;;5035859;28;20102;-77
2022/01/28 16:04:26;;;;;;;7.10;2.58;;;;;;;;;;5041421;28;20060;-76
2022/01/28 16:06:52;;;;;;;15.95;6.82;;;;;;;;;;5044767;28;20032;-76
2022/01/28 16:09:19;;;;;;;15.98;3.92;;;;;;;;;;5042496;28;20067;-77
2022/01/28 16:11:52;;;;;;;8.02;4.03;;;;;;;;;;5041291;28;20039;-76
2022/01/28 16:14:21;;;;;;;24.73;7.65;;;;;;;;;;5042050;28;20033;-75
2022/01/28 16:17:12;;;;;;;7.88;5.00;;;;;;;;;;5037551;28;20037;-76
2022/01/28 16:19:38;;;;;;;3.47;2.05;;;;;;;;;;5041016;28;20048;-76
2022/01/28 16:22:06;;;;;;;10.70;2.55;;;;;;;;;;5040862;28;20108;-77
2022/01/28 16:24:32;;;;;;;4.70;2.50;;;;;;;;;;5043877;28;20045;-77
2022/01/28 16:26:58;;;;;;;2.78;2.00;;;;;;;;;;5045163;28;20037;-76
2022/01/28 16:29:25;;;;;;;5.07;1.92;;;;;;;;;;5043301;28;20064;-78